createdAt,value
2019-04-07T00:02:16.389Z,21.97
2019-04-07T00:04:46.714Z,26.15
2019-04-07T00:07:17.473Z,19.77
2019-04-07T00:09:47.171Z,20.60
2019-04-07T00:12:17.338Z,22.50
2019-04-07T00:14:47.200Z,20.08
2019-04-07T00:17:16.820Z,20.60
2019-04-07T00:19:46.987Z,21.48
2019-04-07T00:22:17.110Z,23.07
2019-04-07T00:24:46.886Z,21.17
2019-04-07T00:27:16.516Z,23.10
2019-04-07T00:29:46.159Z,23.15
2019-04-07T00:32:15.789Z,22.82
2019-04-07T00:34:45.426Z,23.27
2019-04-07T00:37:15.675Z,22.35
2019-04-07T00:39:45.450Z,21.10
2019-04-07T00:42:15.142Z,22.55
2019-04-07T00:44:45.454Z,20.70
2019-04-07T00:47:15.284Z,22.65
2019-04-07T00:49:45.124Z,19.70
2019-04-07T00:52:16.380Z,22.07
2019-04-07T00:54:46.028Z,23.75
2019-04-07T00:57:16.372Z,19.73
2019-04-07T00:59:46.166Z,21.10
2019-04-07T01:02:16.896Z,22.82
2019-04-07T01:04:47.228Z,23.30
2019-04-07T01:07:17.057Z,23.87
2019-04-07T01:09:46.704Z,20.77
2019-04-07T01:12:16.340Z,20.32
2019-04-07T01:14:45.984Z,24.47
2019-04-07T01:17:15.733Z,21.57
2019-04-07T01:19:46.027Z,21.52
2019-04-07T01:22:15.646Z,24.60
2019-04-07T01:24:45.294Z,22.42
2019-04-07T01:27:14.921Z,21.35
2019-04-07T01:29:44.534Z,21.23
2019-04-07T01:32:14.774Z,21.15
2019-04-07T01:34:44.484Z,20.62
2019-04-07T01:37:14.126Z,22.98
2019-04-07T01:39:43.899Z,23.25
2019-04-07T01:42:15.220Z,22.73
2019-04-07T01:45:02.721Z,21.93
2019-04-07T01:47:34.322Z,22.73
2019-04-07T01:50:06.549Z,25.23
2019-04-07T01:52:43.823Z,23.87
2019-04-07T01:55:15.537Z,23.15
2019-04-07T01:57:49.627Z,22.27
2019-04-07T02:00:26.686Z,20.23
2019-04-07T02:03:01.038Z,21.75
2019-04-07T02:05:51.711Z,22.52
2019-04-07T02:08:20.339Z,23.00
2019-04-07T02:10:53.218Z,23.15
2019-04-07T02:13:40.581Z,24.45
2019-04-07T02:16:20.440Z,23.57
2019-04-07T02:18:54.326Z,21.68
2019-04-07T02:21:34.914Z,23.35
2019-04-07T02:24:19.327Z,24.27
2019-04-07T02:26:50.616Z,26.37
2019-04-07T02:29:34.599Z,24.25
2019-04-07T02:32:06.249Z,24.07
2019-04-07T02:34:53.981Z,24.10
2019-04-07T02:37:44.065Z,26.07
2019-04-07T02:40:19.158Z,25.45
2019-04-07T02:42:50.620Z,23.80
2019-04-07T02:45:36.952Z,22.15
2019-04-07T02:48:15.692Z,20.12
2019-04-07T02:51:03.234Z,23.90
2019-04-07T02:53:37.968Z,21.87
2019-04-07T02:56:15.268Z,21.42
2019-04-07T02:58:50.430Z,20.65
2019-04-07T03:01:32.711Z,19.67
2019-04-07T03:04:04.811Z,20.32
2019-04-07T03:06:44.002Z,21.52
2019-04-07T03:09:15.452Z,21.02
2019-04-07T03:11:56.323Z,20.40
2019-04-07T03:14:34.549Z,23.05
2019-04-07T03:17:11.885Z,20.60
2019-04-07T03:19:59.389Z,23.62
2019-04-07T03:22:47.074Z,21.50
2019-04-07T03:25:17.289Z,22.98
2019-04-07T03:27:51.552Z,19.45
2019-04-07T03:33:00.520Z,22.00
2019-04-07T03:35:38.375Z,20.77
2019-04-07T03:38:10.146Z,22.90
2019-04-07T03:40:44.337Z,22.30
2019-04-07T03:43:18.248Z,22.77
2019-04-07T03:45:47.785Z,21.73
2019-04-07T03:48:21.703Z,20.85
2019-04-07T03:50:55.799Z,22.67
2019-04-07T03:53:42.955Z,22.42
2019-04-07T03:56:20.153Z,23.57
2019-04-07T03:59:00.304Z,23.60
2019-04-07T04:01:33.153Z,21.82
2019-04-07T04:04:05.484Z,20.67
2019-04-07T04:06:55.076Z,20.80
2019-04-07T04:09:38.381Z,20.77
2019-04-07T04:12:17.121Z,20.82
2019-04-07T04:14:50.639Z,22.85
2019-04-07T04:17:20.516Z,22.93
2019-04-07T04:19:50.169Z,20.52
2019-04-07T04:22:20.919Z,20.68
2019-04-07T04:24:53.976Z,23.12
2019-04-07T04:27:23.892Z,23.50
2019-04-07T04:29:55.003Z,22.00
2019-04-07T04:32:25.552Z,21.62
2019-04-07T04:34:56.196Z,22.52
2019-04-07T04:37:37.284Z,23.45
2019-04-07T04:39:57.491Z,20.40
2019-04-07T04:42:27.169Z,21.33
2019-04-07T04:44:56.806Z,23.35
2019-04-07T04:47:27.398Z,23.98
2019-04-07T04:49:57.734Z,24.70
2019-04-07T04:52:27.809Z,20.57
2019-04-07T04:54:57.663Z,23.22
2019-04-07T04:57:28.292Z,21.45
2019-04-07T04:59:58.098Z,23.98
2019-04-07T05:02:27.755Z,23.05
2019-04-07T05:04:57.550Z,23.83
2019-04-07T05:07:27.215Z,23.55
2019-04-07T05:09:56.885Z,21.93
2019-04-07T05:12:26.478Z,21.73
2019-04-07T05:14:56.101Z,22.00
2019-04-07T05:17:26.039Z,21.48
2019-04-07T05:19:56.513Z,21.15
2019-04-07T05:22:26.755Z,22.32
2019-04-07T05:24:56.690Z,24.23
2019-04-07T05:27:27.578Z,23.12
2019-04-07T05:29:57.343Z,24.85
2019-04-07T05:32:26.963Z,23.18
2019-04-07T05:34:56.770Z,20.55
2019-04-07T05:37:26.844Z,24.50
2019-04-07T05:39:56.654Z,21.45
2019-04-07T05:42:26.291Z,27.70
2019-04-07T05:44:56.050Z,23.67
2019-04-07T05:47:25.746Z,22.22
2019-04-07T05:49:58.768Z,25.97
2019-04-07T05:52:27.261Z,22.13
2019-04-07T05:54:57.784Z,21.55
2019-04-07T05:57:30.898Z,26.00
2019-04-07T05:59:59.253Z,24.00
2019-04-07T06:02:31.259Z,22.50
2019-04-07T06:05:01.178Z,24.40
2019-04-07T06:07:32.544Z,21.10
2019-04-07T06:10:02.443Z,22.42
2019-04-07T06:12:32.969Z,23.95
2019-04-07T06:15:02.654Z,25.17
2019-04-07T06:17:32.303Z,26.45
2019-04-07T06:20:02.695Z,22.93
2019-04-07T06:22:32.458Z,25.82
2019-04-07T06:25:04.052Z,24.77
2019-04-07T06:27:33.661Z,29.48
2019-04-07T06:30:05.904Z,25.02
2019-04-07T06:32:37.578Z,26.23
2019-04-07T06:35:12.322Z,27.67
2019-04-07T06:37:40.703Z,30.05
2019-04-07T06:40:11.167Z,27.07
2019-04-07T06:42:40.806Z,27.77
2019-04-07T06:45:12.942Z,27.95
2019-04-07T06:47:47.342Z,24.40
2019-04-07T06:50:23.332Z,27.13
2019-04-07T06:53:00.411Z,29.12
2019-04-07T06:55:48.635Z,30.17
2019-04-07T06:58:24.280Z,27.17
2019-04-07T07:01:01.969Z,25.72
2019-04-07T07:03:47.603Z,33.10
2019-04-07T07:06:19.792Z,29.35
2019-04-07T07:08:55.650Z,31.50
2019-04-07T07:11:40.846Z,31.57
2019-04-07T07:14:10.428Z,29.95
2019-04-07T07:16:59.599Z,31.05
2019-04-07T07:19:41.211Z,26.30
2019-04-07T07:22:16.555Z,29.85
2019-04-07T07:24:47.433Z,27.98
2019-04-07T07:27:17.576Z,26.90
2019-04-07T07:29:47.964Z,31.60
2019-04-07T07:32:18.705Z,29.57
2019-04-07T07:34:48.360Z,35.08
2019-04-07T07:37:18.395Z,28.60
2019-04-07T07:39:48.708Z,31.57
2019-04-07T07:42:21.491Z,33.98
2019-04-07T07:44:50.410Z,36.58
2019-04-07T07:47:21.810Z,33.83
2019-04-07T07:49:52.005Z,33.40
2019-04-07T07:52:22.028Z,34.45
2019-04-07T07:54:51.946Z,31.85
2019-04-07T07:57:23.743Z,33.25
2019-04-07T07:59:52.918Z,32.10
2019-04-07T08:02:22.633Z,32.05
2019-04-07T08:04:56.525Z,32.03
2019-04-07T08:07:23.683Z,35.58
2019-04-07T08:09:54.283Z,30.48
2019-04-07T08:12:25.398Z,30.20
2019-04-07T08:14:57.154Z,34.67
2019-04-07T08:17:27.586Z,35.38
2019-04-07T08:19:57.766Z,35.10
2019-04-07T08:22:33.760Z,33.92
2019-04-07T08:24:59.973Z,33.75
2019-04-07T08:27:31.216Z,37.13
2019-04-07T08:30:01.651Z,36.05
2019-04-07T08:32:33.048Z,35.17
2019-04-07T08:35:05.294Z,40.58
2019-04-07T08:37:34.230Z,36.33
2019-04-07T08:40:07.388Z,37.10
2019-04-07T08:42:37.014Z,44.00
2019-04-07T08:45:08.214Z,48.30
2019-04-07T08:47:38.141Z,42.38
2019-04-07T08:50:10.489Z,40.98
2019-04-07T08:52:42.664Z,44.38
2019-04-07T08:55:11.887Z,41.90
2019-04-07T08:57:42.250Z,39.18
2019-04-07T09:00:17.240Z,42.83
2019-04-07T09:05:20.605Z,40.28
2019-04-07T09:07:47.844Z,40.52
2019-04-07T09:10:25.895Z,39.15
2019-04-07T09:12:56.764Z,38.15
2019-04-07T09:15:31.609Z,35.30
2019-04-07T09:18:03.324Z,42.73
2019-04-07T09:20:40.869Z,39.33
2019-04-07T09:23:16.259Z,36.33
2019-04-07T09:26:10.108Z,36.38
2019-04-07T09:28:38.943Z,35.52
2019-04-07T09:31:26.370Z,37.03
2019-04-07T09:34:13.607Z,36.60
2019-04-07T09:36:51.968Z,36.38
2019-04-07T09:39:21.448Z,31.62
2019-04-07T09:42:09.118Z,37.33
2019-04-07T09:44:53.817Z,31.55
2019-04-07T09:50:15.164Z,33.53
2019-04-07T09:52:49.384Z,33.78
2019-04-07T09:55:30.101Z,23.00
2019-04-07T09:58:07.977Z,26.82
2019-04-07T10:00:38.960Z,24.32
2019-04-07T10:03:19.266Z,28.50
2019-04-07T10:05:53.398Z,26.17
2019-04-07T10:08:33.764Z,26.42
2019-04-07T10:11:10.692Z,24.37
2019-04-07T10:13:58.010Z,25.23
2019-04-07T10:16:31.894Z,25.95
2019-04-07T10:19:03.081Z,27.30
2019-04-07T10:21:35.034Z,27.77
2019-04-07T10:24:16.908Z,25.97
2019-04-07T10:26:54.088Z,22.35
2019-04-07T10:29:31.877Z,20.55
2019-04-07T10:32:12.487Z,17.90
2019-04-07T10:34:59.952Z,15.88
2019-04-07T10:37:40.293Z,15.43
2019-04-07T10:40:21.830Z,15.00
2019-04-07T10:42:50.206Z,15.58
2019-04-07T10:45:26.178Z,18.62
2019-04-07T10:47:58.197Z,18.40
2019-04-07T10:50:38.194Z,20.25
2019-04-07T10:53:26.302Z,20.23
2019-04-07T10:55:57.850Z,22.30
2019-04-07T10:58:46.077Z,24.92
2019-04-07T11:01:19.888Z,21.27
2019-04-07T11:04:01.207Z,18.92
2019-04-07T11:06:32.493Z,18.37
2019-04-07T11:09:07.915Z,18.23
2019-04-07T11:11:53.376Z,19.85
2019-04-07T11:14:41.600Z,19.45
2019-04-07T11:17:20.463Z,19.60
2019-04-07T11:20:03.749Z,18.57
2019-04-07T11:22:50.803Z,16.50
2019-04-07T11:25:34.694Z,19.40
2019-04-07T11:28:04.636Z,19.48
2019-04-07T11:30:42.110Z,19.30
2019-04-07T11:33:16.218Z,18.05
2019-04-07T11:35:47.670Z,18.62
2019-04-07T11:38:34.373Z,19.15
2019-04-07T11:41:12.443Z,18.12
2019-04-07T11:43:50.076Z,17.37
2019-04-07T11:46:30.613Z,17.20
2019-04-07T11:49:02.892Z,18.45
2019-04-07T11:51:46.741Z,15.18
2019-04-07T11:54:18.230Z,18.20
2019-04-07T11:56:50.515Z,18.00
2019-04-07T11:59:20.457Z,17.07
2019-04-07T12:02:08.925Z,17.48
2019-04-07T12:04:40.423Z,15.13
2019-04-07T12:07:14.558Z,15.83
2019-04-07T12:10:01.937Z,15.53
2019-04-07T12:12:42.032Z,14.87
2019-04-07T12:15:24.233Z,20.23
2019-04-07T12:18:03.733Z,17.20
2019-04-07T12:20:35.064Z,12.80
2019-04-07T12:23:07.021Z,14.45
2019-04-07T12:25:54.732Z,13.55
2019-04-07T12:28:28.655Z,13.53
2019-04-07T12:31:18.506Z,11.97
2019-04-07T12:34:00.065Z,12.43
2019-04-07T12:36:34.427Z,12.35
2019-04-07T12:39:20.148Z,11.10
2019-04-07T12:41:56.154Z,11.15
2019-04-07T12:44:42.506Z,11.10
2019-04-07T12:47:14.516Z,12.10
2019-04-07T12:49:45.713Z,10.55
2019-04-07T12:52:26.111Z,9.50
2019-04-07T12:55:08.123Z,8.48
2019-04-07T12:57:39.970Z,10.35
2019-04-07T13:00:22.657Z,9.15
2019-04-07T13:02:57.433Z,11.50
2019-04-07T13:05:27.373Z,8.95
2019-04-07T13:08:14.862Z,9.50
2019-04-07T13:10:49.869Z,8.35
2019-04-07T13:13:34.092Z,8.00
2019-04-07T13:16:11.629Z,9.25
2019-04-07T13:18:46.503Z,9.43
2019-04-07T13:21:16.623Z,8.23
2019-04-07T13:24:10.925Z,9.38
2019-04-07T13:26:43.497Z,7.08
2019-04-07T13:29:14.846Z,8.93
2019-04-07T13:31:47.018Z,7.22
2019-04-07T13:34:24.506Z,6.58
2019-04-07T13:36:59.056Z,6.35
2019-04-07T13:39:39.664Z,6.83
2019-04-07T13:42:14.179Z,7.08
2019-04-07T13:45:03.964Z,6.33
2019-04-07T13:47:33.043Z,5.87
2019-04-07T13:50:08.660Z,6.37
2019-04-07T13:52:41.940Z,7.05
2019-04-07T13:55:25.652Z,6.72
2019-04-07T13:58:12.831Z,6.80
2019-04-07T14:01:00.846Z,6.67
2019-04-07T14:03:35.575Z,6.50
2019-04-07T14:06:16.401Z,7.15
2019-04-07T14:09:01.386Z,6.78
2019-04-07T14:11:58.794Z,6.08
2019-04-07T14:14:37.257Z,6.33
2019-04-07T14:17:16.446Z,5.83
2019-04-07T14:20:00.481Z,8.80
2019-04-07T14:22:30.976Z,5.42
2019-04-07T14:25:13.006Z,5.30
2019-04-07T14:27:50.513Z,5.08
2019-04-07T14:30:33.352Z,5.00
2019-04-07T14:33:04.803Z,6.08
2019-04-07T14:35:42.152Z,6.97
2019-04-07T14:38:14.704Z,7.45
2019-04-07T14:40:48.895Z,8.50
2019-04-07T14:43:36.370Z,7.67
2019-04-07T14:46:21.143Z,7.92
2019-04-07T14:48:55.254Z,6.75
2019-04-07T14:51:35.438Z,10.65
2019-04-07T14:54:23.287Z,8.55
2019-04-07T14:56:57.454Z,7.50
2019-04-07T14:59:45.004Z,6.78
2019-04-07T15:02:17.020Z,8.38
2019-04-07T15:04:52.032Z,6.55
2019-04-07T15:07:36.680Z,6.12
2019-04-07T15:10:15.559Z,6.97
2019-04-07T15:12:52.326Z,11.95
2019-04-07T15:15:22.537Z,8.05
2019-04-07T15:17:52.425Z,6.87
2019-04-07T15:20:22.051Z,7.53
2019-04-07T15:22:51.779Z,9.28
2019-04-07T15:25:21.620Z,10.10
2019-04-07T15:27:52.765Z,9.48
2019-04-07T15:30:22.850Z,8.70
2019-04-07T15:32:52.468Z,9.65
2019-04-07T15:35:22.125Z,8.98
2019-04-07T15:37:52.489Z,7.75
2019-04-07T15:40:22.215Z,7.05
2019-04-07T15:42:52.618Z,8.23
2019-04-07T15:45:23.392Z,8.08
2019-04-07T15:47:54.040Z,7.85
2019-04-07T15:50:24.726Z,7.30
2019-04-07T15:52:55.279Z,11.83
2019-04-07T15:55:42.202Z,6.80
2019-04-07T15:57:57.601Z,9.00
2019-04-07T16:00:28.320Z,8.48
2019-04-07T16:02:58.949Z,8.53
2019-04-07T16:05:28.947Z,6.92
2019-04-07T16:08:01.022Z,7.78
2019-04-07T16:10:31.318Z,6.20
2019-04-07T16:13:01.447Z,6.67
2019-04-07T16:15:31.890Z,7.12
2019-04-07T16:18:05.452Z,18.10
2019-04-07T16:20:39.489Z,9.78
2019-04-07T16:23:05.028Z,8.13
2019-04-07T16:25:34.813Z,7.05
2019-04-07T16:28:04.532Z,6.55
2019-04-07T16:30:34.159Z,7.70
2019-04-07T16:33:05.512Z,7.65
2019-04-07T16:35:35.278Z,5.97
2019-04-07T16:38:05.303Z,5.40
2019-04-07T16:40:35.102Z,6.17
2019-04-07T16:43:13.113Z,6.55
2019-04-07T16:45:36.737Z,6.75
2019-04-07T16:48:07.700Z,4.90
2019-04-07T16:50:38.112Z,8.33
2019-04-07T16:53:09.221Z,5.08
2019-04-07T16:55:47.428Z,6.78
2019-04-07T16:58:14.481Z,6.30
2019-04-07T17:00:45.203Z,6.03
2019-04-07T17:03:15.414Z,6.78
2019-04-07T17:05:45.422Z,7.35
2019-04-07T17:08:19.620Z,6.42
2019-04-07T17:10:47.391Z,5.15
2019-04-07T17:13:24.824Z,6.17
2019-04-07T17:15:50.786Z,5.85
2019-04-07T17:18:41.851Z,14.95
2019-04-07T17:21:15.962Z,9.70
2019-04-07T17:23:46.184Z,6.40
2019-04-07T17:26:16.121Z,7.35
2019-04-07T17:28:47.460Z,8.18
2019-04-07T17:31:17.673Z,6.62
2019-04-07T17:33:47.652Z,6.25
2019-04-07T17:36:20.162Z,8.45
2019-04-07T17:39:03.951Z,7.33
2019-04-07T17:41:32.647Z,6.95
2019-04-07T17:44:16.842Z,6.92
2019-04-07T17:46:57.852Z,7.40
2019-04-07T17:49:44.357Z,7.47
2019-04-07T17:52:19.692Z,6.17
2019-04-07T17:55:00.130Z,7.08
2019-04-07T17:57:47.709Z,7.05
2019-04-07T18:00:37.620Z,7.95
2019-04-07T18:03:18.086Z,6.42
2019-04-07T18:06:01.757Z,6.87
2019-04-07T18:08:44.724Z,7.97
2019-04-07T18:11:20.668Z,7.28
2019-04-07T18:14:01.988Z,7.53
2019-04-07T18:16:39.644Z,7.55
2019-04-07T18:19:11.995Z,6.42
2019-04-07T18:21:46.865Z,6.35
2019-04-07T18:24:16.945Z,6.42
2019-04-07T18:26:48.243Z,10.03
2019-04-07T18:29:25.703Z,7.00
2019-04-07T18:31:57.852Z,9.93
2019-04-07T18:34:33.916Z,10.15
2019-04-07T18:37:06.336Z,8.25
2019-04-07T18:39:48.937Z,12.03
2019-04-07T18:42:24.062Z,12.33
2019-04-07T18:44:58.533Z,14.53
2019-04-07T18:47:28.362Z,16.80
2019-04-07T18:50:04.156Z,14.98
2019-04-07T18:52:37.776Z,12.95
2019-04-07T18:55:14.219Z,14.35
2019-04-07T18:57:58.554Z,14.28
2019-04-07T19:00:31.639Z,13.93
2019-04-07T19:03:05.200Z,12.78
2019-04-07T19:05:45.460Z,14.98
2019-04-07T19:08:28.645Z,13.53
2019-04-07T19:11:10.774Z,12.03
2019-04-07T19:13:39.899Z,12.60
2019-04-07T19:16:22.922Z,16.55
2019-04-07T19:19:00.506Z,13.98
2019-04-07T19:21:38.880Z,12.95
2019-04-07T19:24:11.563Z,13.48
2019-04-07T19:26:56.169Z,18.12
2019-04-07T19:29:39.114Z,16.55
2019-04-07T19:32:11.549Z,13.60
2019-04-07T19:34:49.279Z,13.65
2019-04-07T19:37:23.263Z,12.25
2019-04-07T19:40:02.890Z,11.12
2019-04-07T19:42:50.814Z,11.53
2019-04-07T19:45:38.100Z,11.40
2019-04-07T19:48:15.592Z,11.63
2019-04-07T19:50:58.423Z,10.70
2019-04-07T19:53:32.903Z,11.38
2019-04-07T19:56:19.306Z,11.10
2019-04-07T19:58:51.345Z,12.63
2019-04-07T20:01:23.407Z,10.88
2019-04-07T20:04:12.963Z,10.30
2019-04-07T20:06:45.533Z,9.78
2019-04-07T20:09:22.463Z,9.33
2019-04-07T20:12:00.561Z,9.58
2019-04-07T20:14:30.615Z,8.78
2019-04-07T20:17:08.411Z,9.13
2019-04-07T20:19:41.265Z,8.48
2019-04-07T20:22:28.749Z,8.45
2019-04-07T20:25:18.709Z,8.43
2019-04-07T20:27:49.087Z,7.80
2019-04-07T20:30:21.242Z,7.55
2019-04-07T20:32:59.586Z,7.83
2019-04-07T20:35:33.912Z,7.22
2019-04-07T20:38:08.911Z,7.53
2019-04-07T20:40:52.255Z,7.30
2019-04-07T20:43:27.263Z,6.65
2019-04-07T20:46:00.251Z,6.37
2019-04-07T20:48:33.486Z,8.00
2019-04-07T20:51:04.697Z,6.17
2019-04-07T20:53:42.980Z,7.33
2019-04-07T20:56:14.451Z,8.20
2019-04-07T20:59:05.685Z,6.47
2019-04-07T21:02:01.624Z,7.35
2019-04-07T21:04:25.674Z,7.20
2019-04-07T21:06:58.839Z,6.20
2019-04-07T21:09:35.347Z,6.40
2019-04-07T21:12:21.334Z,6.08
2019-04-07T21:15:19.060Z,6.83
2019-04-07T21:17:41.662Z,5.03
2019-04-07T21:20:13.358Z,4.70
2019-04-07T21:22:54.016Z,4.65
2019-04-07T21:25:37.665Z,5.58
2019-04-07T21:28:24.902Z,5.28
2019-04-07T21:30:56.190Z,5.03
2019-04-07T21:33:44.171Z,4.95
2019-04-07T21:36:14.230Z,5.37
2019-04-07T21:38:52.524Z,5.37
2019-04-07T21:41:22.256Z,4.70
2019-04-07T21:44:09.584Z,6.25
2019-04-07T21:46:54.672Z,4.90
2019-04-07T21:49:35.421Z,5.05
2019-04-07T21:52:08.493Z,4.75
2019-04-07T21:57:19.985Z,7.20
2019-04-07T21:59:52.155Z,5.70
2019-04-07T22:02:35.496Z,4.50
2019-04-07T22:05:24.521Z,4.58
2019-04-07T22:08:03.776Z,5.70
2019-04-07T22:10:30.776Z,5.12
2019-04-07T22:13:03.779Z,5.45
2019-04-07T22:15:42.981Z,4.95
2019-04-07T22:18:07.525Z,6.22
2019-04-07T22:20:34.912Z,5.10
2019-04-07T22:23:08.249Z,5.55
2019-04-07T22:25:40.951Z,5.40
2019-04-07T22:28:11.697Z,5.78
2019-04-07T22:30:51.724Z,5.20
2019-04-07T22:33:25.145Z,4.53
2019-04-07T22:35:53.302Z,3.90
2019-04-07T22:38:23.839Z,5.25
2019-04-07T22:40:54.292Z,4.10
2019-04-07T22:43:25.055Z,3.95
2019-04-07T22:46:05.397Z,3.98
2019-04-07T22:48:27.889Z,3.83
2019-04-07T22:50:57.435Z,4.75
2019-04-07T22:53:28.835Z,3.52
2019-04-07T22:55:59.093Z,3.37
2019-04-07T22:58:29.734Z,4.10
2019-04-07T23:01:00.624Z,3.45
2019-04-07T23:03:31.262Z,4.17
2019-04-07T23:06:01.129Z,3.58
2019-04-07T23:08:30.860Z,3.50
2019-04-07T23:11:00.471Z,3.50
2019-04-07T23:13:30.123Z,3.05
2019-04-07T23:16:09.005Z,3.62
2019-04-07T23:18:31.777Z,4.47
2019-04-07T23:21:01.485Z,3.58
2019-04-07T23:23:31.156Z,3.77
2019-04-07T23:26:00.844Z,3.20
2019-04-07T23:28:30.716Z,2.67
2019-04-07T23:31:00.413Z,3.02
2019-04-07T23:33:30.026Z,2.95
2019-04-07T23:36:00.437Z,3.40
2019-04-07T23:38:30.480Z,3.12
2019-04-07T23:41:01.195Z,4.60
2019-04-07T23:43:30.830Z,4.67
2019-04-07T23:46:00.473Z,3.92
2019-04-07T23:48:30.629Z,3.52
2019-04-07T23:51:00.325Z,3.70
2019-04-07T23:54:10.757Z,4.47
2019-04-07T23:56:43.634Z,3.90
2019-04-07T23:59:14.606Z,4.85
